sensor_id;sensor_type;location;lat;lon;timestamp;P1;P2;P0
77794;PMS5003;66985;45.778;3.090;2023-02-12T00:00:21;30;29;
77794;PMS5003;66985;45.778;3.090;2023-02-12T00:02:46;33;33;
77794;PMS5003;66985;45.778;3.090;2023-02-12T00:05:11;32;32;
77794;PMS5003;66985;45.778;3.090;2023-02-12T00:07:37;27;27;
77794;PMS5003;66985;45.778;3.090;2023-02-12T00:10:03;30;28;
77794;PMS5003;66985;45.778;3.090;2023-02-12T00:12:28;30;29;
77794;PMS5003;66985;45.778;3.090;2023-02-12T00:14:53;30;27;
77794;PMS5003;66985;45.778;3.090;2023-02-12T00:17:19;28;25;
77794;PMS5003;66985;45.778;3.090;2023-02-12T00:19:44;29;29;
77794;PMS5003;66985;45.778;3.090;2023-02-12T00:22:09;29;27;
77794;PMS5003;66985;45.778;3.090;2023-02-12T00:24:35;36;31;
77794;PMS5003;66985;45.778;3.090;2023-02-12T00:27:00;30;29;
77794;PMS5003;66985;45.778;3.090;2023-02-12T00:29:25;32;32;
77794;PMS5003;66985;45.778;3.090;2023-02-12T00:31:51;32;32;
77794;PMS5003;66985;45.778;3.090;2023-02-12T00:34:21;35;35;
77794;PMS5003;66985;45.778;3.090;2023-02-12T00:36:42;32;29;
77794;PMS5003;66985;45.778;3.090;2023-02-12T00:39:08;29;29;
77794;PMS5003;66985;45.778;3.090;2023-02-12T00:41:32;31;28;
77794;PMS5003;66985;45.778;3.090;2023-02-12T00:43:57;32;32;
77794;PMS5003;66985;45.778;3.090;2023-02-12T00:46:23;30;30;
77794;PMS5003;66985;45.778;3.090;2023-02-12T00:48:48;30;30;
77794;PMS5003;66985;45.778;3.090;2023-02-12T00:51:14;28;27;
77794;PMS5003;66985;45.778;3.090;2023-02-12T00:53:39;33;32;
77794;PMS5003;66985;45.778;3.090;2023-02-12T00:56:05;35;32;
77794;PMS5003;66985;45.778;3.090;2023-02-12T00:58:30;30;30;
77794;PMS5003;66985;45.778;3.090;2023-02-12T01:00:56;31;31;
77794;PMS5003;66985;45.778;3.090;2023-02-12T01:03:21;31;30;
77794;PMS5003;66985;45.778;3.090;2023-02-12T01:05:47;35;32;
77794;PMS5003;66985;45.778;3.090;2023-02-12T01:08:14;37;35;
77794;PMS5003;66985;45.778;3.090;2023-02-12T01:10:39;29;29;
77794;PMS5003;66985;45.778;3.090;2023-02-12T01:13:05;34;33;
77794;PMS5003;66985;45.778;3.090;2023-02-12T01:15:30;28;28;
77794;PMS5003;66985;45.778;3.090;2023-02-12T01:17:55;32;30;
77794;PMS5003;66985;45.778;3.090;2023-02-12T01:20:21;31;29;
77794;PMS5003;66985;45.778;3.090;2023-02-12T01:22:45;30;28;
77794;PMS5003;66985;45.778;3.090;2023-02-12T01:25:11;31;31;
77794;PMS5003;66985;45.778;3.090;2023-02-12T01:27:37;32;32;
77794;PMS5003;66985;45.778;3.090;2023-02-12T01:30:03;28;27;
77794;PMS5003;66985;45.778;3.090;2023-02-12T01:32:29;30;30;
77794;PMS5003;66985;45.778;3.090;2023-02-12T01:34:54;30;30;
77794;PMS5003;66985;45.778;3.090;2023-02-12T01:37:19;36;36;
77794;PMS5003;66985;45.778;3.090;2023-02-12T01:39:44;35;35;
77794;PMS5003;66985;45.778;3.090;2023-02-12T01:42:11;36;36;
77794;PMS5003;66985;45.778;3.090;2023-02-12T01:44:35;35;33;
77794;PMS5003;66985;45.778;3.090;2023-02-12T01:47:01;37;34;
77794;PMS5003;66985;45.778;3.090;2023-02-12T01:49:27;36;35;
77794;PMS5003;66985;45.778;3.090;2023-02-12T01:51:52;36;34;
77794;PMS5003;66985;45.778;3.090;2023-02-12T01:54:18;35;34;
77794;PMS5003;66985;45.778;3.090;2023-02-12T01:56:43;31;31;
77794;PMS5003;66985;45.778;3.090;2023-02-12T01:59:08;32;32;
77794;PMS5003;66985;45.778;3.090;2023-02-12T02:01:34;39;35;
77794;PMS5003;66985;45.778;3.090;2023-02-12T02:03:59;36;33;
77794;PMS5003;66985;45.778;3.090;2023-02-12T02:06:24;33;33;
77794;PMS5003;66985;45.778;3.090;2023-02-12T02:08:49;36;32;
77794;PMS5003;66985;45.778;3.090;2023-02-12T02:11:15;35;35;
77794;PMS5003;66985;45.778;3.090;2023-02-12T02:13:40;31;31;
77794;PMS5003;66985;45.778;3.090;2023-02-12T02:16:09;35;33;
77794;PMS5003;66985;45.778;3.090;2023-02-12T02:18:32;36;36;
77794;PMS5003;66985;45.778;3.090;2023-02-12T02:21:03;32;32;
77794;PMS5003;66985;45.778;3.090;2023-02-12T02:23:28;28;27;
77794;PMS5003;66985;45.778;3.090;2023-02-12T02:25:53;34;34;
77794;PMS5003;66985;45.778;3.090;2023-02-12T02:28:20;37;33;
77794;PMS5003;66985;45.778;3.090;2023-02-12T02:30:39;32;30;
77794;PMS5003;66985;45.778;3.090;2023-02-12T02:33:08;32;31;
77794;PMS5003;66985;45.778;3.090;2023-02-12T02:35:31;34;32;
77794;PMS5003;66985;45.778;3.090;2023-02-12T02:37:57;30;29;
77794;PMS5003;66985;45.778;3.090;2023-02-12T02:40:21;34;33;
77794;PMS5003;66985;45.778;3.090;2023-02-12T02:42:48;33;33;
77794;PMS5003;66985;45.778;3.090;2023-02-12T02:45:13;36;32;
77794;PMS5003;66985;45.778;3.090;2023-02-12T02:47:38;36;32;
77794;PMS5003;66985;45.778;3.090;2023-02-12T02:50:03;31;31;
77794;PMS5003;66985;45.778;3.090;2023-02-12T02:52:29;26;26;
77794;PMS5003;66985;45.778;3.090;2023-02-12T02:54:54;39;38;
77794;PMS5003;66985;45.778;3.090;2023-02-12T02:57:20;29;29;
77794;PMS5003;66985;45.778;3.090;2023-02-12T02:59:45;32;31;
77794;PMS5003;66985;45.778;3.090;2023-02-12T03:02:11;36;34;
77794;PMS5003;66985;45.778;3.090;2023-02-12T03:04:36;32;31;
77794;PMS5003;66985;45.778;3.090;2023-02-12T03:07:02;31;30;
77794;PMS5003;66985;45.778;3.090;2023-02-12T03:09:28;30;30;
77794;PMS5003;66985;45.778;3.090;2023-02-12T03:11:52;32;32;
77794;PMS5003;66985;45.778;3.090;2023-02-12T03:14:18;31;30;
77794;PMS5003;66985;45.778;3.090;2023-02-12T03:16:45;36;36;
77794;PMS5003;66985;45.778;3.090;2023-02-12T03:19:10;35;34;
77794;PMS5003;66985;45.778;3.090;2023-02-12T03:21:35;35;32;
77794;PMS5003;66985;45.778;3.090;2023-02-12T03:24:00;34;34;
77794;PMS5003;66985;45.778;3.090;2023-02-12T03:26:25;31;31;
77794;PMS5003;66985;45.778;3.090;2023-02-12T03:28:50;30;30;
77794;PMS5003;66985;45.778;3.090;2023-02-12T03:31:18;34;32;
77794;PMS5003;66985;45.778;3.090;2023-02-12T03:33:43;33;31;
77794;PMS5003;66985;45.778;3.090;2023-02-12T03:36:08;34;33;
77794;PMS5003;66985;45.778;3.090;2023-02-12T03:38:33;31;31;
77794;PMS5003;66985;45.778;3.090;2023-02-12T03:40:58;30;27;
77794;PMS5003;66985;45.778;3.090;2023-02-12T03:43:23;30;28;
77794;PMS5003;66985;45.778;3.090;2023-02-12T03:45:48;32;30;
77794;PMS5003;66985;45.778;3.090;2023-02-12T03:48:15;33;32;
77794;PMS5003;66985;45.778;3.090;2023-02-12T03:50:41;32;31;
77794;PMS5003;66985;45.778;3.090;2023-02-12T03:53:03;32;32;
77794;PMS5003;66985;45.778;3.090;2023-02-12T03:55:29;30;29;
77794;PMS5003;66985;45.778;3.090;2023-02-12T03:57:54;27;27;
77794;PMS5003;66985;45.778;3.090;2023-02-12T04:00:20;29;29;
77794;PMS5003;66985;45.778;3.090;2023-02-12T04:02:45;33;32;
77794;PMS5003;66985;45.778;3.090;2023-02-12T04:05:16;33;30;
77794;PMS5003;66985;45.778;3.090;2023-02-12T04:07:35;32;32;
77794;PMS5003;66985;45.778;3.090;2023-02-12T04:10:02;28;28;
77794;PMS5003;66985;45.778;3.090;2023-02-12T04:12:30;34;29;
77794;PMS5003;66985;45.778;3.090;2023-02-12T04:14:53;32;29;
77794;PMS5003;66985;45.778;3.090;2023-02-12T04:17:19;29;29;
77794;PMS5003;66985;45.778;3.090;2023-02-12T04:19:45;30;29;
77794;PMS5003;66985;45.778;3.090;2023-02-12T04:22:12;32;32;
77794;PMS5003;66985;45.778;3.090;2023-02-12T04:24:36;29;28;
77794;PMS5003;66985;45.778;3.090;2023-02-12T04:27:01;32;31;
77794;PMS5003;66985;45.778;3.090;2023-02-12T04:29:25;28;26;
77794;PMS5003;66985;45.778;3.090;2023-02-12T04:31:53;28;28;
77794;PMS5003;66985;45.778;3.090;2023-02-12T04:34:17;31;31;
77794;PMS5003;66985;45.778;3.090;2023-02-12T04:36:44;31;31;
77794;PMS5003;66985;45.778;3.090;2023-02-12T04:39:08;28;28;
77794;PMS5003;66985;45.778;3.090;2023-02-12T04:41:33;27;26;
77794;PMS5003;66985;45.778;3.090;2023-02-12T04:43:58;31;29;
77794;PMS5003;66985;45.778;3.090;2023-02-12T04:46:24;31;30;
77794;PMS5003;66985;45.778;3.090;2023-02-12T04:48:50;28;27;
77794;PMS5003;66985;45.778;3.090;2023-02-12T04:51:14;28;28;
77794;PMS5003;66985;45.778;3.090;2023-02-12T04:53:40;34;32;
77794;PMS5003;66985;45.778;3.090;2023-02-12T04:56:05;32;32;
77794;PMS5003;66985;45.778;3.090;2023-02-12T04:58:31;32;32;
77794;PMS5003;66985;45.778;3.090;2023-02-12T05:00:57;30;29;
77794;PMS5003;66985;45.778;3.090;2023-02-12T05:03:22;30;29;
77794;PMS5003;66985;45.778;3.090;2023-02-12T05:05:47;31;30;
77794;PMS5003;66985;45.778;3.090;2023-02-12T05:08:13;29;26;
77794;PMS5003;66985;45.778;3.090;2023-02-12T05:10:38;27;25;
77794;PMS5003;66985;45.778;3.090;2023-02-12T05:13:04;29;28;
77794;PMS5003;66985;45.778;3.090;2023-02-12T05:15:29;25;25;
77794;PMS5003;66985;45.778;3.090;2023-02-12T05:17:54;28;28;
77794;PMS5003;66985;45.778;3.090;2023-02-12T05:20:19;28;26;
77794;PMS5003;66985;45.778;3.090;2023-02-12T05:22:45;28;28;
77794;PMS5003;66985;45.778;3.090;2023-02-12T05:25:10;31;30;
77794;PMS5003;66985;45.778;3.090;2023-02-12T05:27:36;30;26;
77794;PMS5003;66985;45.778;3.090;2023-02-12T05:30:02;29;26;
77794;PMS5003;66985;45.778;3.090;2023-02-12T05:32:27;34;32;
77794;PMS5003;66985;45.778;3.090;2023-02-12T05:34:53;27;26;
77794;PMS5003;66985;45.778;3.090;2023-02-12T05:37:18;28;28;
77794;PMS5003;66985;45.778;3.090;2023-02-12T05:39:44;31;31;
77794;PMS5003;66985;45.778;3.090;2023-02-12T05:42:10;32;30;
77794;PMS5003;66985;45.778;3.090;2023-02-12T05:44:35;30;28;
77794;PMS5003;66985;45.778;3.090;2023-02-12T05:47:01;29;28;
77794;PMS5003;66985;45.778;3.090;2023-02-12T05:49:26;32;32;
77794;PMS5003;66985;45.778;3.090;2023-02-12T05:51:52;29;29;
77794;PMS5003;66985;45.778;3.090;2023-02-12T05:54:18;30;30;
77794;PMS5003;66985;45.778;3.090;2023-02-12T05:56:48;26;26;
77794;PMS5003;66985;45.778;3.090;2023-02-12T05:59:11;26;26;
77794;PMS5003;66985;45.778;3.090;2023-02-12T06:01:34;31;29;
77794;PMS5003;66985;45.778;3.090;2023-02-12T06:03:59;24;24;
77794;PMS5003;66985;45.778;3.090;2023-02-12T06:06:25;24;23;
77794;PMS5003;66985;45.778;3.090;2023-02-12T06:08:50;27;27;
77794;PMS5003;66985;45.778;3.090;2023-02-12T06:11:15;32;29;
77794;PMS5003;66985;45.778;3.090;2023-02-12T06:13:41;28;25;
77794;PMS5003;66985;45.778;3.090;2023-02-12T06:16:06;29;28;
77794;PMS5003;66985;45.778;3.090;2023-02-12T06:18:31;25;25;
77794;PMS5003;66985;45.778;3.090;2023-02-12T06:20:56;25;25;
77794;PMS5003;66985;45.778;3.090;2023-02-12T06:23:22;25;24;
77794;PMS5003;66985;45.778;3.090;2023-02-12T06:25:47;25;24;
77794;PMS5003;66985;45.778;3.090;2023-02-12T06:28:13;25;25;
77794;PMS5003;66985;45.778;3.090;2023-02-12T06:30:38;32;26;
77794;PMS5003;66985;45.778;3.090;2023-02-12T06:33:03;26;26;
77794;PMS5003;66985;45.778;3.090;2023-02-12T06:35:28;24;24;
77794;PMS5003;66985;45.778;3.090;2023-02-12T06:37:54;30;30;
77794;PMS5003;66985;45.778;3.090;2023-02-12T06:40:19;31;27;
77794;PMS5003;66985;45.778;3.090;2023-02-12T06:42:45;26;25;
77794;PMS5003;66985;45.778;3.090;2023-02-12T06:45:10;23;22;
77794;PMS5003;66985;45.778;3.090;2023-02-12T06:47:36;24;24;
77794;PMS5003;66985;45.778;3.090;2023-02-12T06:50:01;27;27;
77794;PMS5003;66985;45.778;3.090;2023-02-12T06:52:26;26;23;
77794;PMS5003;66985;45.778;3.090;2023-02-12T06:54:52;26;26;
77794;PMS5003;66985;45.778;3.090;2023-02-12T06:57:18;25;25;
77794;PMS5003;66985;45.778;3.090;2023-02-12T06:59:43;26;25;
77794;PMS5003;66985;45.778;3.090;2023-02-12T07:02:09;23;21;
77794;PMS5003;66985;45.778;3.090;2023-02-12T07:04:34;28;26;
77794;PMS5003;66985;45.778;3.090;2023-02-12T07:06:59;29;26;
77794;PMS5003;66985;45.778;3.090;2023-02-12T07:09:25;26;25;
77794;PMS5003;66985;45.778;3.090;2023-02-12T07:11:50;26;26;
77794;PMS5003;66985;45.778;3.090;2023-02-12T07:14:16;25;23;
77794;PMS5003;66985;45.778;3.090;2023-02-12T07:16:41;25;22;
77794;PMS5003;66985;45.778;3.090;2023-02-12T07:19:07;26;24;
77794;PMS5003;66985;45.778;3.090;2023-02-12T07:21:33;22;22;
77794;PMS5003;66985;45.778;3.090;2023-02-12T07:23:58;24;23;
77794;PMS5003;66985;45.778;3.090;2023-02-12T07:26:24;24;23;
77794;PMS5003;66985;45.778;3.090;2023-02-12T07:28:49;20;20;
77794;PMS5003;66985;45.778;3.090;2023-02-12T07:31:15;22;22;
77794;PMS5003;66985;45.778;3.090;2023-02-12T07:33:40;27;26;
77794;PMS5003;66985;45.778;3.090;2023-02-12T07:36:06;23;22;
77794;PMS5003;66985;45.778;3.090;2023-02-12T07:38:31;24;23;
77794;PMS5003;66985;45.778;3.090;2023-02-12T07:41:04;24;22;
77794;PMS5003;66985;45.778;3.090;2023-02-12T07:43:21;23;23;
77794;PMS5003;66985;45.778;3.090;2023-02-12T07:45:47;23;22;
77794;PMS5003;66985;45.778;3.090;2023-02-12T07:48:12;20;20;
77794;PMS5003;66985;45.778;3.090;2023-02-12T07:50:38;21;21;
77794;PMS5003;66985;45.778;3.090;2023-02-12T07:53:03;23;21;
77794;PMS5003;66985;45.778;3.090;2023-02-12T07:55:28;20;20;
77794;PMS5003;66985;45.778;3.090;2023-02-12T07:57:54;24;23;
77794;PMS5003;66985;45.778;3.090;2023-02-12T08:00:20;25;25;
77794;PMS5003;66985;45.778;3.090;2023-02-12T08:02:50;24;23;
77794;PMS5003;66985;45.778;3.090;2023-02-12T08:05:10;22;21;
77794;PMS5003;66985;45.778;3.090;2023-02-12T08:07:35;34;33;
77794;PMS5003;66985;45.778;3.090;2023-02-12T08:10:01;42;38;
77794;PMS5003;66985;45.778;3.090;2023-02-12T08:12:27;37;35;
77794;PMS5003;66985;45.778;3.090;2023-02-12T08:14:52;44;44;
77794;PMS5003;66985;45.778;3.090;2023-02-12T08:17:17;45;42;
77794;PMS5003;66985;45.778;3.090;2023-02-12T08:19:43;39;36;
77794;PMS5003;66985;45.778;3.090;2023-02-12T08:22:09;41;39;
77794;PMS5003;66985;45.778;3.090;2023-02-12T08:24:34;36;34;
77794;PMS5003;66985;45.778;3.090;2023-02-12T08:26:59;34;34;
77794;PMS5003;66985;45.778;3.090;2023-02-12T08:29:25;31;31;
77794;PMS5003;66985;45.778;3.090;2023-02-12T08:31:54;44;39;
77794;PMS5003;66985;45.778;3.090;2023-02-12T08:34:16;33;30;
77794;PMS5003;66985;45.778;3.090;2023-02-12T08:36:41;31;31;
77794;PMS5003;66985;45.778;3.090;2023-02-12T08:39:07;37;35;
77794;PMS5003;66985;45.778;3.090;2023-02-12T08:41:33;38;36;
77794;PMS5003;66985;45.778;3.090;2023-02-12T08:43:59;36;35;
77794;PMS5003;66985;45.778;3.090;2023-02-12T08:46:24;35;34;
77794;PMS5003;66985;45.778;3.090;2023-02-12T08:48:51;33;33;
77794;PMS5003;66985;45.778;3.090;2023-02-12T08:51:16;33;31;
77794;PMS5003;66985;45.778;3.090;2023-02-12T08:53:41;32;29;
77794;PMS5003;66985;45.778;3.090;2023-02-12T08:56:07;32;32;
77794;PMS5003;66985;45.778;3.090;2023-02-12T08:58:32;27;27;
77794;PMS5003;66985;45.778;3.090;2023-02-12T09:00:58;27;26;
77794;PMS5003;66985;45.778;3.090;2023-02-12T09:03:23;27;26;
77794;PMS5003;66985;45.778;3.090;2023-02-12T09:05:48;33;31;
77794;PMS5003;66985;45.778;3.090;2023-02-12T09:08:14;37;34;
77794;PMS5003;66985;45.778;3.090;2023-02-12T09:10:39;37;36;
77794;PMS5003;66985;45.778;3.090;2023-02-12T09:13:05;44;42;
77794;PMS5003;66985;45.778;3.090;2023-02-12T09:15:31;35;35;
77794;PMS5003;66985;45.778;3.090;2023-02-12T09:17:56;45;43;
77794;PMS5003;66985;45.778;3.090;2023-02-12T09:20:21;41;40;
77794;PMS5003;66985;45.778;3.090;2023-02-12T09:22:46;43;39;
77794;PMS5003;66985;45.778;3.090;2023-02-12T09:25:12;43;41;
77794;PMS5003;66985;45.778;3.090;2023-02-12T09:27:37;47;42;
77794;PMS5003;66985;45.778;3.090;2023-02-12T09:30:03;35;33;
77794;PMS5003;66985;45.778;3.090;2023-02-12T09:32:28;40;38;
77794;PMS5003;66985;45.778;3.090;2023-02-12T09:34:53;35;35;
77794;PMS5003;66985;45.778;3.090;2023-02-12T09:37:18;41;39;
77794;PMS5003;66985;45.778;3.090;2023-02-12T09:39:44;38;37;
77794;PMS5003;66985;45.778;3.090;2023-02-12T09:42:15;35;34;
77794;PMS5003;66985;45.778;3.090;2023-02-12T09:44:35;38;35;
77794;PMS5003;66985;45.778;3.090;2023-02-12T09:47:00;37;37;
77794;PMS5003;66985;45.778;3.090;2023-02-12T09:49:29;39;37;
77794;PMS5003;66985;45.778;3.090;2023-02-12T09:51:50;32;31;
77794;PMS5003;66985;45.778;3.090;2023-02-12T09:54:15;35;33;
77794;PMS5003;66985;45.778;3.090;2023-02-12T09:56:40;35;34;
77794;PMS5003;66985;45.778;3.090;2023-02-12T09:59:06;34;31;
77794;PMS5003;66985;45.778;3.090;2023-02-12T10:01:31;34;32;
77794;PMS5003;66985;45.778;3.090;2023-02-12T10:04:02;31;31;
77794;PMS5003;66985;45.778;3.090;2023-02-12T10:06:23;38;34;
77794;PMS5003;66985;45.778;3.090;2023-02-12T10:08:52;33;29;
77794;PMS5003;66985;45.778;3.090;2023-02-12T10:11:15;31;31;
77794;PMS5003;66985;45.778;3.090;2023-02-12T10:13:39;34;32;
77794;PMS5003;66985;45.778;3.090;2023-02-12T10:16:06;31;30;
77794;PMS5003;66985;45.778;3.090;2023-02-12T10:18:34;31;28;
77794;PMS5003;66985;45.778;3.090;2023-02-12T10:20:57;31;30;
77794;PMS5003;66985;45.778;3.090;2023-02-12T10:23:24;31;29;
77794;PMS5003;66985;45.778;3.090;2023-02-12T10:25:47;29;27;
77794;PMS5003;66985;45.778;3.090;2023-02-12T10:28:11;31;30;
77794;PMS5003;66985;45.778;3.090;2023-02-12T10:30:39;35;30;
77794;PMS5003;66985;45.778;3.090;2023-02-12T10:33:03;29;28;
77794;PMS5003;66985;45.778;3.090;2023-02-12T10:35:27;34;30;
77794;PMS5003;66985;45.778;3.090;2023-02-12T10:37:54;29;29;
77794;PMS5003;66985;45.778;3.090;2023-02-12T10:40:18;27;26;
77794;PMS5003;66985;45.778;3.090;2023-02-12T10:42:44;29;28;
77794;PMS5003;66985;45.778;3.090;2023-02-12T10:45:11;26;24;
77794;PMS5003;66985;45.778;3.090;2023-02-12T10:47:34;30;30;
77794;PMS5003;66985;45.778;3.090;2023-02-12T10:50:00;28;27;
77794;PMS5003;66985;45.778;3.090;2023-02-12T10:52:29;29;27;
77794;PMS5003;66985;45.778;3.090;2023-02-12T10:54:51;24;22;
77794;PMS5003;66985;45.778;3.090;2023-02-12T10:57:18;25;24;
77794;PMS5003;66985;45.778;3.090;2023-02-12T10:59:41;27;27;
77794;PMS5003;66985;45.778;3.090;2023-02-12T11:02:16;26;24;
77794;PMS5003;66985;45.778;3.090;2023-02-12T11:04:32;25;23;
77794;PMS5003;66985;45.778;3.090;2023-02-12T11:06:57;23;22;
77794;PMS5003;66985;45.778;3.090;2023-02-12T11:09:26;26;23;
77794;PMS5003;66985;45.778;3.090;2023-02-12T11:11:48;24;24;
77794;PMS5003;66985;45.778;3.090;2023-02-12T11:14:15;26;24;
77794;PMS5003;66985;45.778;3.090;2023-02-12T11:16:39;23;23;
77794;PMS5003;66985;45.778;3.090;2023-02-12T11:19:04;29;26;
77794;PMS5003;66985;45.778;3.090;2023-02-12T11:21:29;21;21;
77794;PMS5003;66985;45.778;3.090;2023-02-12T11:23:55;26;24;
77794;PMS5003;66985;45.778;3.090;2023-02-12T11:26:22;21;21;
77794;PMS5003;66985;45.778;3.090;2023-02-12T11:28:51;23;23;
77794;PMS5003;66985;45.778;3.090;2023-02-12T11:31:20;27;25;
77794;PMS5003;66985;45.778;3.090;2023-02-12T11:33:36;23;23;
77794;PMS5003;66985;45.778;3.090;2023-02-12T11:36:02;24;24;
77794;PMS5003;66985;45.778;3.090;2023-02-12T11:38:27;25;24;
77794;PMS5003;66985;45.778;3.090;2023-02-12T11:40:53;21;20;
77794;PMS5003;66985;45.778;3.090;2023-02-12T11:43:18;23;23;
77794;PMS5003;66985;45.778;3.090;2023-02-12T11:45:49;23;23;
77794;PMS5003;66985;45.778;3.090;2023-02-12T11:48:10;25;22;
77794;PMS5003;66985;45.778;3.090;2023-02-12T11:50:34;22;22;
77794;PMS5003;66985;45.778;3.090;2023-02-12T11:52:59;21;21;
77794;PMS5003;66985;45.778;3.090;2023-02-12T11:55:30;22;22;
77794;PMS5003;66985;45.778;3.090;2023-02-12T11:57:50;19;19;
77794;PMS5003;66985;45.778;3.090;2023-02-12T12:00:16;24;24;
77794;PMS5003;66985;45.778;3.090;2023-02-12T12:02:42;24;23;
77794;PMS5003;66985;45.778;3.090;2023-02-12T12:05:07;22;21;
77794;PMS5003;66985;45.778;3.090;2023-02-12T12:07:32;21;19;
77794;PMS5003;66985;45.778;3.090;2023-02-12T12:09:58;22;22;
77794;PMS5003;66985;45.778;3.090;2023-02-12T12:12:24;22;21;
77794;PMS5003;66985;45.778;3.090;2023-02-12T12:14:49;22;22;
77794;PMS5003;66985;45.778;3.090;2023-02-12T12:17:14;25;23;
77794;PMS5003;66985;45.778;3.090;2023-02-12T12:19:42;23;20;
77794;PMS5003;66985;45.778;3.090;2023-02-12T12:22:07;26;24;
77794;PMS5003;66985;45.778;3.090;2023-02-12T12:24:34;22;22;
77794;PMS5003;66985;45.778;3.090;2023-02-12T12:26:57;23;23;
77794;PMS5003;66985;45.778;3.090;2023-02-12T12:29:21;20;20;
77794;PMS5003;66985;45.778;3.090;2023-02-12T12:31:46;19;19;
77794;PMS5003;66985;45.778;3.090;2023-02-12T12:34:12;21;19;
77794;PMS5003;66985;45.778;3.090;2023-02-12T12:37:04;21;20;
77794;PMS5003;66985;45.778;3.090;2023-02-12T12:39:02;23;21;
77794;PMS5003;66985;45.778;3.090;2023-02-12T12:41:30;25;24;
77794;PMS5003;66985;45.778;3.090;2023-02-12T12:43:57;25;23;
77794;PMS5003;66985;45.778;3.090;2023-02-12T12:46:29;25;23;
77794;PMS5003;66985;45.778;3.090;2023-02-12T12:48:47;20;20;
77794;PMS5003;66985;45.778;3.090;2023-02-12T12:51:13;23;23;
77794;PMS5003;66985;45.778;3.090;2023-02-12T12:53:40;22;20;
77794;PMS5003;66985;45.778;3.090;2023-02-12T12:56:05;23;21;
77794;PMS5003;66985;45.778;3.090;2023-02-12T12:58:31;24;23;
77794;PMS5003;66985;45.778;3.090;2023-02-12T13:00:55;22;20;
77794;PMS5003;66985;45.778;3.090;2023-02-12T13:03:20;22;22;
77794;PMS5003;66985;45.778;3.090;2023-02-12T13:05:46;23;22;
77794;PMS5003;66985;45.778;3.090;2023-02-12T13:08:11;26;25;
77794;PMS5003;66985;45.778;3.090;2023-02-12T13:10:35;24;21;
77794;PMS5003;66985;45.778;3.090;2023-02-12T13:13:03;25;25;
77794;PMS5003;66985;45.778;3.090;2023-02-12T13:15:27;21;21;
77794;PMS5003;66985;45.778;3.090;2023-02-12T13:17:51;26;24;
77794;PMS5003;66985;45.778;3.090;2023-02-12T13:20:17;20;20;
77794;PMS5003;66985;45.778;3.090;2023-02-12T13:22:42;21;20;
77794;PMS5003;66985;45.778;3.090;2023-02-12T13:25:13;19;19;
77794;PMS5003;66985;45.778;3.090;2023-02-12T13:27:33;21;21;
77794;PMS5003;66985;45.778;3.090;2023-02-12T13:29:58;22;22;
77794;PMS5003;66985;45.778;3.090;2023-02-12T13:32:23;22;21;
77794;PMS5003;66985;45.778;3.090;2023-02-12T13:34:48;21;21;
77794;PMS5003;66985;45.778;3.090;2023-02-12T13:37:14;20;19;
77794;PMS5003;66985;45.778;3.090;2023-02-12T13:39:39;24;24;
77794;PMS5003;66985;45.778;3.090;2023-02-12T13:42:10;23;21;
77794;PMS5003;66985;45.778;3.090;2023-02-12T13:44:30;19;19;
77794;PMS5003;66985;45.778;3.090;2023-02-12T13:46:55;22;22;
77794;PMS5003;66985;45.778;3.090;2023-02-12T13:49:23;20;19;
77794;PMS5003;66985;45.778;3.090;2023-02-12T13:51:47;22;22;
77794;PMS5003;66985;45.778;3.090;2023-02-12T13:54:13;23;20;
77794;PMS5003;66985;45.778;3.090;2023-02-12T13:56:39;22;20;
77794;PMS5003;66985;45.778;3.090;2023-02-12T13:59:02;23;23;
77794;PMS5003;66985;45.778;3.090;2023-02-12T14:01:43;23;20;
77794;PMS5003;66985;45.778;3.090;2023-02-12T14:03:52;22;20;
77794;PMS5003;66985;45.778;3.090;2023-02-12T14:06:18;18;18;
77794;PMS5003;66985;45.778;3.090;2023-02-12T14:08:45;20;19;
77794;PMS5003;66985;45.778;3.090;2023-02-12T14:11:10;24;21;
77794;PMS5003;66985;45.778;3.090;2023-02-12T14:13:35;20;19;
77794;PMS5003;66985;45.778;3.090;2023-02-12T14:16:16;23;23;
77794;PMS5003;66985;45.778;3.090;2023-02-12T14:18:27;19;18;
77794;PMS5003;66985;45.778;3.090;2023-02-12T14:21:32;19;19;
77794;PMS5003;66985;45.778;3.090;2023-02-12T14:23:20;22;22;
77794;PMS5003;66985;45.778;3.090;2023-02-12T14:25:42;23;23;
77794;PMS5003;66985;45.778;3.090;2023-02-12T14:28:16;22;22;
77794;PMS5003;66985;45.778;3.090;2023-02-12T14:30:33;25;24;
77794;PMS5003;66985;45.778;3.090;2023-02-12T14:33:08;21;21;
77794;PMS5003;66985;45.778;3.090;2023-02-12T14:35:32;19;19;
77794;PMS5003;66985;45.778;3.090;2023-02-12T14:37:50;20;20;
77794;PMS5003;66985;45.778;3.090;2023-02-12T14:40:47;24;21;
77794;PMS5003;66985;45.778;3.090;2023-02-12T14:42:41;23;23;
77794;PMS5003;66985;45.778;3.090;2023-02-12T14:45:21;22;22;
77794;PMS5003;66985;45.778;3.090;2023-02-12T14:47:53;25;23;
77794;PMS5003;66985;45.778;3.090;2023-02-12T14:50:21;23;23;
77794;PMS5003;66985;45.778;3.090;2023-02-12T14:52:47;24;21;
77794;PMS5003;66985;45.778;3.090;2023-02-12T14:55:17;19;19;
77794;PMS5003;66985;45.778;3.090;2023-02-12T14:57:36;20;20;
77794;PMS5003;66985;45.778;3.090;2023-02-12T15:00:03;22;22;
77794;PMS5003;66985;45.778;3.090;2023-02-12T15:02:27;24;23;
77794;PMS5003;66985;45.778;3.090;2023-02-12T15:04:53;25;23;
77794;PMS5003;66985;45.778;3.090;2023-02-12T15:07:20;29;27;
77794;PMS5003;66985;45.778;3.090;2023-02-12T15:09:43;23;21;
77794;PMS5003;66985;45.778;3.090;2023-02-12T15:12:10;27;25;
77794;PMS5003;66985;45.778;3.090;2023-02-12T15:14:34;25;24;
77794;PMS5003;66985;45.778;3.090;2023-02-12T15:17:01;26;25;
77794;PMS5003;66985;45.778;3.090;2023-02-12T15:19:30;21;21;
77794;PMS5003;66985;45.778;3.090;2023-02-12T15:21:51;27;24;
77794;PMS5003;66985;45.778;3.090;2023-02-12T15:24:20;28;28;
77794;PMS5003;66985;45.778;3.090;2023-02-12T15:26:43;27;24;
77794;PMS5003;66985;45.778;3.090;2023-02-12T15:29:15;25;25;
77794;PMS5003;66985;45.778;3.090;2023-02-12T15:31:33;25;25;
77794;PMS5003;66985;45.778;3.090;2023-02-12T15:34:00;23;23;
77794;PMS5003;66985;45.778;3.090;2023-02-12T15:36:25;25;24;
77794;PMS5003;66985;45.778;3.090;2023-02-12T15:38:51;22;22;
77794;PMS5003;66985;45.778;3.090;2023-02-12T15:41:24;29;28;
77794;PMS5003;66985;45.778;3.090;2023-02-12T15:43:41;26;26;
77794;PMS5003;66985;45.778;3.090;2023-02-12T15:46:13;26;18;
77794;PMS5003;66985;45.778;3.090;2023-02-12T15:48:32;21;21;
77794;PMS5003;66985;45.778;3.090;2023-02-12T15:50:59;26;25;
77794;PMS5003;66985;45.778;3.090;2023-02-12T15:53:23;23;23;
77794;PMS5003;66985;45.778;3.090;2023-02-12T15:55:48;26;26;
77794;PMS5003;66985;45.778;3.090;2023-02-12T15:58:18;26;24;
77794;PMS5003;66985;45.778;3.090;2023-02-12T16:00:39;23;19;
77794;PMS5003;66985;45.778;3.090;2023-02-12T16:03:05;23;21;
77794;PMS5003;66985;45.778;3.090;2023-02-12T16:05:30;25;24;